This is the latest recevied weather packets stored in our database for station/object GW7287. If no packets are shown the sender has not sent any weather packets the latest 10 day(s).
| Time | Temp. | Humidity | Pressure | Rain* | Wind** | Luminosity | Snow |
|---|---|---|---|---|---|---|---|
| 1788465633 | 30.56° C | 15% | 938 hPa | - | - | - | - |
| 1788463822 | 30.56° C | 15% | 938 hPa | - | - | - | - |
| 1788456369 | 36.67° C | 7% | 937.8 hPa | - | - | - | - |
| 1788453948 | 36.67° C | 7% | 937.8 hPa | - | - | - | - |
| 1788443008 | 34.44° C | 12% | 938.8 hPa | - | - | - | - |
| 1788438119 | 29.44° C | 29% | 939.7 hPa | - | - | - | - |
| 1788427346 | 19.44° C | 61% | 939.9 hPa | - | - | - | - |
| 1788420661 | 16.67° C | 71% | 939.7 hPa | - | - | - | - |
| 1788411082 | 17.78° C | 69% | 938.6 hPa | - | - | - | - |
| 1788401327 | 20° C | 58% | 938.6 hPa | - | - | - | - |
| 1788395204 | 21.67° C | 32% | 938.7 hPa | - | - | - | - |
| 1788392503 | 21.67° C | 32% | 938.7 hPa | - | - | - | - |
| 1788387259 | 24.44° C | 23% | 938.2 hPa | - | - | - | - |
| 1788384388 | 26.11° C | 21% | 937.6 hPa | - | - | - | - |
| 1788377727 | 28.33° C | 21% | 936.7 hPa | - | - | - | - |
| 1788372868 | 32.22° C | 14% | 936.4 hPa | - | - | - | - |
| 1788367495 | 33.89° C | 13% | 936.6 hPa | - | - | - | - |
| 1788360526 | 33.33° C | 13% | 937.2 hPa | - | - | - | - |
| 1788351139 | 27.78° C | 39% | 938.3 hPa | - | - | - | - |
| 1788343977 | 21.11° C | 60% | 938.4 hPa | - | - | - | - |
| 1788333211 | 14.44° C | 87% | 937 hPa | - | - | - | - |
| 1788326155 | 15.56° C | 82% | 936.4 hPa | - | - | - | - |
| 1788315764 | 18.33° C | 68% | 936.4 hPa | - | - | - | - |
| 1788309651 | 19.44° C | 54% | 936.3 hPa | - | - | - | - |
| 1788306195 | 20.56° C | 45% | 936.1 hPa | - | - | - | - |
* Rain since midnight (hover to see other rain measurements)
** Current wind speed in m/s (hover to see current wind gust speed)